createdAt,value
2023-02-26T00:02:02.867Z,93739.34
2023-02-26T00:04:32.017Z,93740.16
2023-02-26T00:07:01.010Z,93740.66
2023-02-26T00:09:30.258Z,93734.94
2023-02-26T00:12:00.216Z,93736.94
2023-02-26T00:14:31.110Z,93726.34
2023-02-26T00:17:19.001Z,93736.97
2023-02-26T00:19:48.545Z,93729.34
2023-02-26T00:22:18.214Z,93729.00
2023-02-26T00:24:47.321Z,93724.53
2023-02-26T00:27:16.314Z,93719.75
2023-02-26T00:29:47.332Z,93716.50
2023-02-26T00:32:18.301Z,93707.22
2023-02-26T00:34:48.454Z,93702.22
2023-02-26T00:37:29.062Z,93696.38
2023-02-26T00:40:10.441Z,93698.47
2023-02-26T00:42:39.990Z,93692.72
2023-02-26T00:45:15.588Z,93698.75
2023-02-26T00:47:52.435Z,93697.25
2023-02-26T00:50:23.629Z,93691.63
2023-02-26T00:53:02.822Z,93696.66
2023-02-26T00:55:32.284Z,93695.31
2023-02-26T00:58:01.198Z,93683.44
2023-02-26T01:00:33.445Z,93681.78
2023-02-26T01:03:03.877Z,93693.78
2023-02-26T01:05:33.652Z,93683.97
2023-02-26T01:08:07.782Z,93674.97
2023-02-26T01:10:37.540Z,93675.00
2023-02-26T01:13:07.243Z,93670.94
2023-02-26T01:15:38.398Z,93673.66
2023-02-26T01:18:13.713Z,93674.16
2023-02-26T01:20:48.423Z,93674.97
2023-02-26T01:23:21.464Z,93674.22
2023-02-26T01:25:55.274Z,93674.53
2023-02-26T01:28:25.798Z,93671.84
2023-02-26T01:31:00.972Z,93672.63
2023-02-26T01:33:34.394Z,93675.50
2023-02-26T01:36:09.234Z,93663.88
2023-02-26T01:38:45.262Z,93661.53
2023-02-26T01:41:32.850Z,93654.81
2023-02-26T01:44:14.638Z,93656.28
2023-02-26T01:46:59.785Z,93655.81
2023-02-26T01:49:29.685Z,93652.53
2023-02-26T01:52:00.502Z,93653.31
2023-02-26T01:54:31.961Z,93651.50
2023-02-26T01:57:05.331Z,93644.31
2023-02-26T01:59:36.153Z,93648.03
2023-02-26T02:02:10.297Z,93647.72
2023-02-26T02:04:40.499Z,93643.00
2023-02-26T02:07:10.182Z,93639.09
2023-02-26T02:09:39.617Z,93630.56
2023-02-26T02:12:28.549Z,93628.09
2023-02-26T02:15:09.795Z,93620.75
2023-02-26T02:17:53.535Z,93615.00
2023-02-26T02:20:47.918Z,93618.34
2023-02-26T02:23:25.934Z,93626.88
2023-02-26T02:26:30.817Z,93628.22
2023-02-26T02:29:32.221Z,93627.41
2023-02-26T02:32:09.176Z,93623.28
2023-02-26T02:34:43.184Z,93626.31
2023-02-26T02:37:20.479Z,93621.75
2023-02-26T02:39:54.400Z,93623.34
2023-02-26T02:42:30.081Z,93628.66
2023-02-26T02:45:02.622Z,93634.50
2023-02-26T02:47:38.735Z,93623.34
2023-02-26T02:50:12.880Z,93633.13
2023-02-26T02:52:47.840Z,93638.72
2023-02-26T02:55:22.421Z,93643.50
2023-02-26T02:57:59.673Z,93639.09
2023-02-26T03:00:31.817Z,93641.41
2023-02-26T03:03:10.839Z,93645.72
2023-02-26T03:05:39.913Z,93647.16
2023-02-26T03:08:13.095Z,93647.50
2023-02-26T03:10:43.337Z,93645.38
2023-02-26T03:13:18.983Z,93647.31
2023-02-26T03:16:03.539Z,93648.09
2023-02-26T03:18:47.213Z,93644.72
2023-02-26T03:21:23.158Z,93650.56
2023-02-26T03:24:00.818Z,93641.63
2023-02-26T03:26:35.166Z,93647.94
2023-02-26T03:29:11.247Z,93646.56
2023-02-26T03:31:49.491Z,93645.47
2023-02-26T03:34:26.113Z,93638.22
2023-02-26T03:37:00.492Z,93630.53
2023-02-26T03:39:35.917Z,93648.63
2023-02-26T03:42:09.182Z,93651.47
2023-02-26T03:44:53.895Z,93644.22
2023-02-26T03:47:24.392Z,93652.19
2023-02-26T03:50:03.289Z,93649.88
2023-02-26T03:52:39.838Z,93646.63
2023-02-26T03:55:42.575Z,93653.00
2023-02-26T03:58:33.326Z,93641.28
2023-02-26T04:01:43.176Z,93633.50
2023-02-26T04:04:18.980Z,93635.09
2023-02-26T04:06:50.005Z,93627.91
2023-02-26T04:09:19.205Z,93627.84
2023-02-26T04:11:50.479Z,93615.88
2023-02-26T04:14:20.430Z,93614.63
2023-02-26T04:16:50.324Z,93617.50
2023-02-26T04:19:19.836Z,93621.84
2023-02-26T04:21:50.951Z,93612.81
2023-02-26T04:24:20.226Z,93608.03
2023-02-26T04:26:50.003Z,93613.06
2023-02-26T04:29:19.637Z,93610.13
2023-02-26T04:31:48.896Z,93607.69
2023-02-26T04:34:18.517Z,93598.81
2023-02-26T04:36:47.431Z,93607.50
2023-02-26T04:39:17.817Z,93607.34
2023-02-26T04:41:47.048Z,93603.31
2023-02-26T04:44:16.506Z,93592.84
2023-02-26T04:46:45.678Z,93592.22
2023-02-26T04:49:14.736Z,93591.38
2023-02-26T04:51:46.302Z,93582.38
2023-02-26T04:54:19.072Z,93584.22
2023-02-26T04:56:47.980Z,93575.22
2023-02-26T04:59:17.804Z,93575.41
2023-02-26T05:01:47.739Z,93574.06
2023-02-26T05:04:17.028Z,93575.63
2023-02-26T05:06:50.124Z,93576.97
2023-02-26T05:09:20.616Z,93565.91
2023-02-26T05:11:49.954Z,93571.69
2023-02-26T05:14:26.243Z,93571.75
2023-02-26T05:16:56.654Z,93572.03
2023-02-26T05:19:26.062Z,93574.53
2023-02-26T05:21:55.018Z,93577.63
2023-02-26T05:24:25.403Z,93573.63
2023-02-26T05:26:54.495Z,93574.09
2023-02-26T05:29:24.802Z,93570.91
2023-02-26T05:31:56.071Z,93577.09
2023-02-26T05:34:25.248Z,93582.66
2023-02-26T05:36:54.189Z,93573.03
2023-02-26T05:39:24.584Z,93576.56
2023-02-26T05:41:55.593Z,93574.28
2023-02-26T05:44:25.063Z,93586.44
2023-02-26T05:46:54.185Z,93571.59
2023-02-26T05:49:23.092Z,93593.09
2023-02-26T05:51:52.177Z,93560.16
2023-02-26T05:54:21.265Z,93570.47
2023-02-26T05:56:51.948Z,93567.59
2023-02-26T05:59:21.100Z,93579.31
2023-02-26T06:01:50.435Z,93575.75
2023-02-26T06:04:19.502Z,93585.53
2023-02-26T06:06:48.565Z,93583.56
2023-02-26T06:09:17.563Z,93578.25
2023-02-26T06:11:46.650Z,93584.44
2023-02-26T06:14:17.493Z,93590.09
2023-02-26T06:16:46.799Z,93588.34
2023-02-26T06:19:15.877Z,93582.63
2023-02-26T06:21:45.052Z,93574.66
2023-02-26T06:24:13.994Z,93603.94
2023-02-26T06:26:43.025Z,93589.06
2023-02-26T06:29:12.243Z,93583.31
2023-02-26T06:31:43.041Z,93591.84
2023-02-26T06:34:12.402Z,93592.34
2023-02-26T06:36:41.820Z,93590.59
2023-02-26T06:39:12.869Z,93580.09
2023-02-26T06:41:41.981Z,93589.28
2023-02-26T06:44:12.039Z,93598.78
2023-02-26T06:46:41.143Z,93602.13
2023-02-26T06:49:12.758Z,93607.28
2023-02-26T06:51:42.148Z,93625.84
2023-02-26T06:54:11.144Z,93603.28
2023-02-26T06:56:40.184Z,93608.16
2023-02-26T06:59:10.741Z,93607.19
2023-02-26T07:01:40.191Z,93593.97
2023-02-26T07:04:10.702Z,93603.47
2023-02-26T07:06:40.028Z,93588.53
2023-02-26T07:09:09.240Z,93597.22
2023-02-26T07:11:38.336Z,93588.03
2023-02-26T07:14:07.503Z,93591.03
2023-02-26T07:16:36.793Z,93598.03
2023-02-26T07:19:05.798Z,93598.41
2023-02-26T07:21:36.532Z,93602.09
2023-02-26T07:24:06.026Z,93593.50
2023-02-26T07:26:35.095Z,93598.44
2023-02-26T07:29:04.046Z,93613.28
2023-02-26T07:31:33.792Z,93602.78
2023-02-26T07:34:02.838Z,93603.56
2023-02-26T07:36:32.109Z,93608.69
2023-02-26T07:39:02.806Z,93604.94
2023-02-26T07:41:31.903Z,93606.22
2023-02-26T07:44:00.990Z,93588.75
2023-02-26T07:46:30.188Z,93594.06
2023-02-26T07:48:59.415Z,93598.16
2023-02-26T07:51:28.628Z,93597.94
2023-02-26T07:53:58.497Z,93603.03
2023-02-26T07:56:29.109Z,93610.47
2023-02-26T07:58:58.293Z,93591.97
2023-02-26T08:01:27.386Z,93591.47
2023-02-26T08:03:57.183Z,93591.91
2023-02-26T08:06:26.771Z,93604.16
2023-02-26T08:08:56.154Z,93595.97
2023-02-26T08:11:25.253Z,93603.97
2023-02-26T08:13:57.006Z,93619.50
2023-02-26T08:16:26.573Z,93592.13
2023-02-26T08:18:57.377Z,93604.13
2023-02-26T08:21:26.935Z,93605.38
2023-02-26T08:23:57.031Z,93608.34
2023-02-26T08:26:26.426Z,93625.13
2023-02-26T08:28:58.682Z,93617.69
2023-02-26T08:31:28.766Z,93622.38
2023-02-26T08:33:58.138Z,93622.88
2023-02-26T08:36:29.144Z,93618.63
2023-02-26T08:38:58.962Z,93626.25
2023-02-26T08:41:30.851Z,93623.16
2023-02-26T08:44:01.824Z,93622.47
2023-02-26T08:46:31.035Z,93624.69
2023-02-26T08:49:00.340Z,93622.75
2023-02-26T08:51:31.335Z,93623.84
2023-02-26T08:54:00.799Z,93630.78
2023-02-26T08:56:29.744Z,93618.94
2023-02-26T08:58:58.920Z,93623.50
2023-02-26T09:01:29.686Z,93614.63
2023-02-26T09:03:59.358Z,93613.94
2023-02-26T09:06:28.938Z,93607.97
2023-02-26T09:08:58.433Z,93606.75
2023-02-26T09:11:31.204Z,93603.47
2023-02-26T09:14:00.586Z,93592.97
2023-02-26T09:16:32.277Z,93605.34
2023-02-26T09:19:02.987Z,93604.22
2023-02-26T09:21:32.147Z,93592.63
2023-02-26T09:24:01.292Z,93602.75
2023-02-26T09:26:30.680Z,93599.00
2023-02-26T09:28:59.885Z,93589.66
2023-02-26T09:31:29.657Z,93601.25
2023-02-26T09:34:00.485Z,93596.19
2023-02-26T09:36:31.506Z,93600.31
2023-02-26T09:39:01.051Z,93600.47
2023-02-26T09:41:33.513Z,93608.66
2023-02-26T09:44:13.572Z,93603.13
2023-02-26T09:46:50.577Z,93593.81
2023-02-26T09:49:29.335Z,93602.69
2023-02-26T09:52:04.083Z,93611.25
2023-02-26T09:54:47.832Z,93597.84
2023-02-26T09:57:27.876Z,93594.94
2023-02-26T09:59:57.393Z,93604.66
2023-02-26T10:02:35.385Z,93598.75
2023-02-26T10:05:28.423Z,93597.56
2023-02-26T10:08:03.608Z,93605.94
2023-02-26T10:10:39.773Z,93600.94
2023-02-26T10:13:21.497Z,93597.69
2023-02-26T10:15:53.863Z,93593.66
2023-02-26T10:18:28.189Z,93593.59
2023-02-26T10:21:02.729Z,93582.69
2023-02-26T10:23:39.442Z,93592.47
2023-02-26T10:26:24.479Z,93587.28
2023-02-26T10:29:01.609Z,93582.13
2023-02-26T10:31:37.067Z,93572.09
2023-02-26T10:34:15.666Z,93561.28
2023-02-26T10:36:53.737Z,93540.34
2023-02-26T10:39:34.891Z,93542.41
2023-02-26T10:42:11.257Z,93553.03
2023-02-26T10:44:46.275Z,93551.09
2023-02-26T10:47:24.670Z,93524.34
2023-02-26T10:49:56.649Z,93539.38
2023-02-26T10:52:30.122Z,93534.28
2023-02-26T10:55:30.696Z,93528.63
2023-02-26T10:58:06.642Z,93541.22
2023-02-26T11:00:36.892Z,93534.56
2023-02-26T11:03:08.201Z,93533.03
2023-02-26T11:05:37.742Z,93537.41
2023-02-26T11:08:14.981Z,93529.34
2023-02-26T11:10:49.657Z,93526.22
2023-02-26T11:13:18.800Z,93522.41
2023-02-26T11:15:51.590Z,93520.66
2023-02-26T11:18:30.512Z,93517.38
2023-02-26T11:21:01.673Z,93522.09
2023-02-26T11:23:34.825Z,93502.19
2023-02-26T11:26:07.836Z,93505.38
2023-02-26T11:28:39.780Z,93510.50
2023-02-26T11:31:12.234Z,93512.69
2023-02-26T11:33:46.250Z,93515.53
2023-02-26T11:36:18.271Z,93514.09
2023-02-26T11:38:54.597Z,93516.56
2023-02-26T11:41:25.622Z,93512.66
2023-02-26T11:44:03.128Z,93501.03
2023-02-26T11:46:32.995Z,93514.91
2023-02-26T11:49:03.333Z,93519.97
2023-02-26T11:51:32.396Z,93511.63
2023-02-26T11:54:03.492Z,93501.69
2023-02-26T11:56:34.712Z,93515.50
2023-02-26T11:59:08.878Z,93520.53
2023-02-26T12:01:40.079Z,93529.97
2023-02-26T12:04:12.702Z,93521.59
2023-02-26T12:06:42.298Z,93536.41
2023-02-26T12:09:15.260Z,93541.53
2023-02-26T12:12:15.327Z,93539.63
2023-02-26T12:15:06.501Z,93554.25
2023-02-26T12:17:54.709Z,93581.22
2023-02-26T12:20:30.405Z,93594.22
2023-02-26T12:23:27.873Z,93608.53
2023-02-26T12:26:21.408Z,93623.06
2023-02-26T12:29:12.591Z,93618.06
2023-02-26T12:32:10.419Z,93644.34
2023-02-26T12:35:05.378Z,93637.72
2023-02-26T12:37:48.852Z,93645.75
2023-02-26T12:40:38.977Z,93657.88
2023-02-26T12:43:17.437Z,93667.38
2023-02-26T12:45:54.285Z,93668.50
2023-02-26T12:48:53.312Z,93678.59
2023-02-26T12:51:40.190Z,93668.72
2023-02-26T12:54:26.090Z,93681.84
2023-02-26T12:57:32.405Z,93677.28
2023-02-26T13:00:30.338Z,93687.88
2023-02-26T13:03:40.316Z,93684.25
2023-02-26T13:06:42.424Z,93684.53
2023-02-26T13:09:25.868Z,93698.06
2023-02-26T13:12:20.038Z,93684.53
2023-02-26T13:14:59.694Z,93702.34
2023-02-26T13:17:38.229Z,93701.72
2023-02-26T13:20:15.332Z,93693.78
2023-02-26T13:22:49.489Z,93687.00
2023-02-26T13:25:26.437Z,93694.19
2023-02-26T13:28:00.176Z,93690.06
2023-02-26T13:30:35.323Z,93693.19
2023-02-26T13:33:08.692Z,93685.63
2023-02-26T13:35:42.248Z,93707.34
2023-02-26T13:38:21.510Z,93690.47
2023-02-26T13:41:02.003Z,93674.78
2023-02-26T13:43:52.701Z,93669.22
2023-02-26T13:46:35.819Z,93672.41
2023-02-26T13:49:25.149Z,93663.75
2023-02-26T13:51:56.213Z,93657.69
2023-02-26T13:54:44.861Z,93656.84
2023-02-26T13:57:36.988Z,93637.03
2023-02-26T14:00:26.511Z,93628.53
2023-02-26T14:02:57.917Z,93624.84
2023-02-26T14:05:51.420Z,93616.97
2023-02-26T14:08:48.091Z,93616.81
2023-02-26T14:11:43.534Z,93605.94
2023-02-26T14:14:25.217Z,93625.56
2023-02-26T14:17:30.223Z,93621.06
2023-02-26T14:20:20.861Z,93624.31
2023-02-26T14:22:54.452Z,93634.19
2023-02-26T14:25:33.289Z,93654.84
2023-02-26T14:28:21.308Z,93662.25
2023-02-26T14:30:53.996Z,93651.38
2023-02-26T14:33:31.263Z,93663.31
2023-02-26T14:36:01.462Z,93666.69
2023-02-26T14:38:33.403Z,93671.75
2023-02-26T14:41:07.896Z,93686.78
2023-02-26T14:43:41.647Z,93684.50
2023-02-26T14:46:12.695Z,93699.09
2023-02-26T14:48:44.041Z,93696.63
2023-02-26T14:51:27.742Z,93706.16
2023-02-26T14:54:15.169Z,93692.97
2023-02-26T14:56:55.809Z,93692.81
2023-02-26T14:59:45.595Z,93691.31
2023-02-26T15:02:28.502Z,93690.66
2023-02-26T15:05:22.451Z,93688.19
2023-02-26T15:08:05.651Z,93672.34
2023-02-26T15:10:50.295Z,93699.03
2023-02-26T15:13:42.010Z,93687.47
2023-02-26T15:16:27.193Z,93686.34
2023-02-26T15:19:15.463Z,93687.53
2023-02-26T15:22:01.096Z,93683.97
2023-02-26T15:24:32.233Z,93692.47
2023-02-26T15:27:04.111Z,93692.66
2023-02-26T15:29:36.979Z,93706.97
2023-02-26T15:32:14.917Z,93696.31
2023-02-26T15:34:47.348Z,93711.22
2023-02-26T15:37:24.662Z,93711.00
2023-02-26T15:39:54.374Z,93731.72
2023-02-26T15:42:28.873Z,93718.50
2023-02-26T15:45:01.855Z,93726.78
2023-02-26T15:47:32.567Z,93726.16
2023-02-26T15:50:02.619Z,93733.19
2023-02-26T15:52:33.980Z,93737.09
2023-02-26T15:55:07.480Z,93730.69
2023-02-26T15:57:37.638Z,93746.97
2023-02-26T16:00:10.696Z,93740.72
2023-02-26T16:02:44.615Z,93736.97
2023-02-26T16:05:15.810Z,93749.00
2023-02-26T16:07:46.808Z,93743.09
2023-02-26T16:10:21.237Z,93755.25
2023-02-26T16:12:53.165Z,93761.59
2023-02-26T16:15:30.362Z,93769.72
2023-02-26T16:18:03.234Z,93770.31
2023-02-26T16:20:39.428Z,93767.91
2023-02-26T16:23:15.414Z,93775.00
2023-02-26T16:25:52.484Z,93779.53
2023-02-26T16:28:23.827Z,93787.25
2023-02-26T16:30:56.546Z,93790.69
2023-02-26T16:33:27.879Z,93795.53
2023-02-26T16:36:04.362Z,93793.94
2023-02-26T16:38:44.715Z,93803.00
2023-02-26T16:41:14.452Z,93807.53
2023-02-26T16:43:53.015Z,93813.97
2023-02-26T16:46:29.448Z,93814.03
2023-02-26T16:49:03.839Z,93804.09
2023-02-26T16:51:38.164Z,93810.69
2023-02-26T16:54:17.049Z,93818.50
2023-02-26T16:56:49.372Z,93826.16
2023-02-26T16:59:21.872Z,93827.47
2023-02-26T17:01:54.786Z,93837.84
2023-02-26T17:04:29.096Z,93847.09
2023-02-26T17:06:58.501Z,93837.84
2023-02-26T17:09:38.931Z,93836.00
2023-02-26T17:12:15.755Z,93841.69
2023-02-26T17:14:46.811Z,93835.75
2023-02-26T17:17:15.881Z,93842.47
2023-02-26T17:19:45.426Z,93846.66
2023-02-26T17:22:17.797Z,93838.84
2023-02-26T17:24:49.668Z,93855.19
2023-02-26T17:27:29.777Z,93847.47
2023-02-26T17:29:59.716Z,93872.22
2023-02-26T17:32:31.600Z,93860.78
2023-02-26T17:35:02.034Z,93866.91
2023-02-26T17:37:35.363Z,93862.09
2023-02-26T17:40:17.295Z,93864.47
2023-02-26T17:42:46.738Z,93864.78
2023-02-26T17:45:16.491Z,93869.66
2023-02-26T17:47:47.699Z,93867.56
2023-02-26T17:50:30.759Z,93862.19
2023-02-26T17:53:00.157Z,93867.94
2023-02-26T17:55:35.899Z,93873.25
2023-02-26T17:58:05.355Z,93877.13
2023-02-26T18:00:39.967Z,93868.78
2023-02-26T18:03:10.288Z,93868.50
2023-02-26T18:05:41.884Z,93864.66
2023-02-26T18:08:26.025Z,93871.31
2023-02-26T18:10:58.915Z,93863.06
2023-02-26T18:13:29.048Z,93865.13
2023-02-26T18:15:59.179Z,93863.94
2023-02-26T18:18:29.508Z,93861.78
2023-02-26T18:20:59.152Z,93858.91
2023-02-26T18:23:28.434Z,93868.03
2023-02-26T18:25:59.686Z,93882.56
2023-02-26T18:28:30.382Z,93869.66
2023-02-26T18:30:59.964Z,93871.94
2023-02-26T18:33:29.123Z,93865.81
2023-02-26T18:35:59.313Z,93866.72
2023-02-26T18:38:30.942Z,93869.38
2023-02-26T18:41:03.230Z,93880.47
2023-02-26T18:43:32.249Z,93875.09
2023-02-26T18:46:02.369Z,93887.13
2023-02-26T18:48:32.316Z,93887.63
2023-02-26T18:51:01.432Z,93888.47
2023-02-26T18:53:30.714Z,93894.59
2023-02-26T18:55:59.844Z,93887.66
2023-02-26T18:58:30.466Z,93893.00
2023-02-26T19:00:59.758Z,93879.63
2023-02-26T19:03:29.026Z,93888.69
2023-02-26T19:05:59.644Z,93893.28
2023-02-26T19:08:30.463Z,93890.88
2023-02-26T19:11:00.386Z,93893.34
2023-02-26T19:13:31.736Z,93895.03
2023-02-26T19:16:01.099Z,93892.06
2023-02-26T19:18:30.446Z,93897.88
2023-02-26T19:21:02.090Z,93901.13
2023-02-26T19:23:31.297Z,93905.06
2023-02-26T19:26:00.336Z,93911.59
2023-02-26T19:28:30.940Z,93891.44
2023-02-26T19:31:00.509Z,93910.50
2023-02-26T19:33:29.504Z,93933.38
2023-02-26T19:35:58.898Z,93920.50
2023-02-26T19:38:28.200Z,93920.06
2023-02-26T19:40:58.070Z,93918.41
2023-02-26T19:43:27.179Z,93923.63
2023-02-26T19:45:57.791Z,93920.41
2023-02-26T19:48:28.131Z,93929.16
2023-02-26T19:50:58.415Z,93939.00
2023-02-26T19:53:27.601Z,93940.28
2023-02-26T19:55:56.798Z,93935.81
2023-02-26T19:58:30.665Z,93944.84
2023-02-26T20:01:04.462Z,93940.19
2023-02-26T20:03:34.067Z,93954.41
2023-02-26T20:06:03.820Z,93947.59
2023-02-26T20:08:33.052Z,93954.28
2023-02-26T20:11:02.470Z,93961.41
2023-02-26T20:13:34.964Z,93953.81
2023-02-26T20:16:08.586Z,93951.34
2023-02-26T20:18:38.259Z,93952.06
2023-02-26T20:21:09.833Z,93950.25
2023-02-26T20:23:40.249Z,93975.75
2023-02-26T20:26:12.206Z,93969.22
2023-02-26T20:28:43.419Z,93969.19
2023-02-26T20:31:14.503Z,93970.34
2023-02-26T20:33:44.035Z,93968.53
2023-02-26T20:36:13.612Z,93969.75
2023-02-26T20:38:43.165Z,93977.19
2023-02-26T20:41:12.376Z,93971.84
2023-02-26T20:43:41.670Z,93977.63
2023-02-26T20:46:10.890Z,93985.09
2023-02-26T20:48:43.213Z,93978.69
2023-02-26T20:51:12.403Z,93981.88
2023-02-26T20:53:41.486Z,93982.88
2023-02-26T20:56:10.575Z,93988.97
2023-02-26T20:58:41.508Z,93982.34
2023-02-26T21:01:10.677Z,93983.88
2023-02-26T21:03:41.418Z,93984.00
2023-02-26T21:06:11.130Z,93990.56
2023-02-26T21:08:40.077Z,93992.41
2023-02-26T21:11:10.256Z,93976.97
2023-02-26T21:13:39.282Z,93983.28
2023-02-26T21:16:08.672Z,93983.81
2023-02-26T21:18:37.652Z,94000.00
2023-02-26T21:21:08.400Z,94000.53
2023-02-26T21:23:37.444Z,93990.72
2023-02-26T21:26:07.309Z,93997.84
2023-02-26T21:28:36.338Z,93996.94
2023-02-26T21:31:05.529Z,94012.03
2023-02-26T21:33:34.493Z,94017.88
2023-02-26T21:36:03.505Z,94020.91
2023-02-26T21:38:34.481Z,94026.94
2023-02-26T21:41:04.278Z,94029.38
2023-02-26T21:43:34.288Z,94025.88
2023-02-26T21:46:03.437Z,94025.81
2023-02-26T21:48:32.644Z,94026.31
2023-02-26T21:51:01.776Z,94022.91
2023-02-26T21:53:30.805Z,94029.28
2023-02-26T21:56:01.190Z,94017.03
2023-02-26T21:58:31.045Z,94033.88
2023-02-26T22:01:02.064Z,94019.75
2023-02-26T22:03:31.197Z,94035.22
2023-02-26T22:06:00.196Z,94027.56
2023-02-26T22:08:29.258Z,94018.03
2023-02-26T22:10:58.160Z,94022.63
2023-02-26T22:13:28.663Z,94028.56
2023-02-26T22:15:57.650Z,94035.22
2023-02-26T22:18:26.668Z,94041.63
2023-02-26T22:20:55.862Z,94036.66
2023-02-26T22:23:24.878Z,94026.69
2023-02-26T22:25:53.849Z,94020.94
2023-02-26T22:28:22.938Z,94028.63
2023-02-26T22:30:56.411Z,94031.38
2023-02-26T22:33:25.802Z,94024.47
2023-02-26T22:35:57.296Z,94008.59
2023-02-26T22:38:26.339Z,94013.91
2023-02-26T22:40:55.640Z,94008.59
2023-02-26T22:43:24.559Z,94017.88
2023-02-26T22:45:54.967Z,94014.44
2023-02-26T22:48:24.038Z,94016.00
2023-02-26T22:50:53.100Z,94025.84
2023-02-26T22:53:21.975Z,94018.34
2023-02-26T22:55:51.057Z,94016.22
2023-02-26T22:58:19.964Z,94018.28
2023-02-26T23:00:49.215Z,94015.63
2023-02-26T23:03:19.597Z,94019.88
2023-02-26T23:05:50.350Z,94012.41
2023-02-26T23:08:19.391Z,94011.88
2023-02-26T23:10:48.555Z,94016.13
2023-02-26T23:13:18.342Z,94017.22
2023-02-26T23:15:47.832Z,94011.34
2023-02-26T23:18:16.916Z,94008.22
2023-02-26T23:20:47.699Z,94014.56
2023-02-26T23:23:16.688Z,94008.75
2023-02-26T23:25:46.039Z,94011.88
2023-02-26T23:28:15.216Z,94008.69
2023-02-26T23:30:44.396Z,94014.28
2023-02-26T23:33:13.912Z,94023.06
2023-02-26T23:35:42.866Z,94017.16
2023-02-26T23:38:13.363Z,94029.13
2023-02-26T23:40:42.441Z,94017.16
2023-02-26T23:43:11.665Z,94008.69
2023-02-26T23:45:40.705Z,93991.63
2023-02-26T23:48:09.646Z,94001.94
2023-02-26T23:50:38.552Z,94008.78
2023-02-26T23:53:08.095Z,94013.63
2023-02-26T23:55:38.425Z,94021.53
2023-02-26T23:58:07.484Z,94010.94
